Time;durP1;ratioP1;P1;durP2;ratioP2;P2;SDS_P1;SDS_P2;PMS_P1;PMS_P2;Temp;Humidity;BMP_temperature;BMP_pressure;BME280_temperature;BME280_humidity;BME280_pressure;Samples;Min_cycle;Max_cycle;Signal;HPM_P1;HPM_P2
2023/05/07 00:01:17;;;;;;;18.92;16.63;;;15.10;83.20;;;;;;5018754;28;20049;-68
2023/05/07 00:03:43;;;;;;;18.55;15.30;;;15.10;83.30;;;;;;5025341;28;20045;-68
2023/05/07 00:06:10;;;;;;;18.05;16.23;;;15.10;83.30;;;;;;5019932;28;20140;-68
2023/05/07 00:08:35;;;;;;;16.00;14.32;;;15.10;83.40;;;;;;5038134;28;20076;-68
2023/05/07 00:11:01;;;;;;;18.30;14.93;;;15.20;83.50;;;;;;5038024;28;20087;-68
2023/05/07 00:13:27;;;;;;;14.68;13.07;;;15.20;83.50;;;;;;5016789;28;20083;-68
2023/05/07 00:15:52;;;;;;;15.95;13.00;;;15.20;83.40;;;;;;5023598;28;20033;-68
2023/05/07 00:18:22;;;;;;;17.15;15.45;;;15.20;83.30;;;;;;5012801;28;20079;-68
2023/05/07 00:20:47;;;;;;;15.35;13.43;;;15.20;83.20;;;;;;5021537;28;20107;-68
2023/05/07 00:23:13;;;;;;;18.70;16.73;;;15.20;83.20;;;;;;5021501;28;20053;-73
2023/05/07 00:25:39;;;;;;;18.70;16.00;;;15.20;83.10;;;;;;5037819;28;20182;-73
2023/05/07 00:28:04;;;;;;;16.85;14.30;;;15.20;83.10;;;;;;5037664;28;20049;-73
2023/05/07 00:30:30;;;;;;;18.77;15.73;;;15.20;83.20;;;;;;5036718;28;20037;-73
2023/05/07 00:32:56;;;;;;;20.13;16.63;;;15.20;83.20;;;;;;5030579;28;20038;-74
2023/05/07 00:35:22;;;;;;;21.15;16.67;;;15.30;83.20;;;;;;5002854;28;20068;-73
2023/05/07 00:37:48;;;;;;;19.08;15.95;;;15.20;83.10;;;;;;5017725;28;20441;-73
2023/05/07 00:40:14;;;;;;;20.42;16.77;;;15.20;83.10;;;;;;5018831;28;20087;-74
2023/05/07 00:42:40;;;;;;;20.83;16.85;;;15.20;83.00;;;;;;5018218;28;20049;-74
2023/05/07 00:45:07;;;;;;;24.42;18.30;;;15.10;83.00;;;;;;5034882;28;20053;-74
2023/05/07 00:47:33;;;;;;;20.58;17.90;;;15.00;82.90;;;;;;5037346;28;20076;-73
2023/05/07 00:49:59;;;;;;;21.10;17.75;;;15.00;83.10;;;;;;5037101;28;20135;-74
2023/05/07 00:52:26;;;;;;;24.13;18.17;;;14.90;83.10;;;;;;5031523;28;20064;-73
2023/05/07 00:54:52;;;;;;;22.80;19.10;;;14.90;83.30;;;;;;5032195;28;20115;-73
2023/05/07 00:57:18;;;;;;;19.35;17.27;;;14.80;83.40;;;;;;5028908;28;20049;-73
2023/05/07 00:59:44;;;;;;;22.55;18.20;;;14.80;83.60;;;;;;5045124;28;20084;-73
2023/05/07 01:02:10;;;;;;;22.77;18.05;;;14.80;83.70;;;;;;5036533;28;20575;-73
2023/05/07 01:04:36;;;;;;;20.45;18.25;;;14.70;83.70;;;;;;5041599;28;20064;-73
2023/05/07 01:07:03;;;;;;;22.55;18.33;;;14.70;83.80;;;;;;5019025;28;20045;-74
2023/05/07 01:09:29;;;;;;;21.65;16.52;;;14.70;83.90;;;;;;5017192;28;20050;-73
2023/05/07 01:11:57;;;;;;;21.17;17.23;;;14.70;84.00;;;;;;5017811;28;20572;-73
2023/05/07 01:14:23;;;;;;;21.05;17.15;;;14.60;84.00;;;;;;5012187;28;20492;-73
2023/05/07 01:16:50;;;;;;;19.45;16.95;;;14.60;84.10;;;;;;5038923;28;20044;-73
2023/05/07 01:19:18;;;;;;;19.35;16.05;;;14.50;84.00;;;;;;5037063;28;20072;-73
2023/05/07 01:21:48;;;;;;;19.60;16.63;;;14.50;84.10;;;;;;5020296;28;20072;-73
2023/05/07 01:24:14;;;;;;;18.73;15.90;;;14.50;84.30;;;;;;5024388;28;20056;-74
2023/05/07 01:26:42;;;;;;;18.45;15.65;;;14.50;84.30;;;;;;5028544;28;20048;-74
2023/05/07 01:29:07;;;;;;;17.85;15.80;;;14.40;84.20;;;;;;5022036;28;20033;-73
2023/05/07 01:31:34;;;;;;;20.77;16.75;;;14.40;84.40;;;;;;5029708;28;20049;-73
2023/05/07 01:34:01;;;;;;;15.93;13.93;;;14.40;84.40;;;;;;5025428;28;20040;-74
2023/05/07 01:36:30;;;;;;;18.23;15.13;;;14.40;84.50;;;;;;5036555;28;20066;-74
2023/05/07 01:38:57;;;;;;;17.08;13.80;;;14.40;84.50;;;;;;5036221;28;20578;-73
2023/05/07 01:41:23;;;;;;;16.23;14.32;;;14.30;84.40;;;;;;5030647;28;20120;-74
2023/05/07 01:43:51;;;;;;;16.05;13.25;;;14.30;84.50;;;;;;5017861;28;20496;-73
2023/05/07 01:46:18;;;;;;;16.25;13.02;;;14.20;84.40;;;;;;5018842;28;20112;-74
2023/05/07 01:48:45;;;;;;;15.05;13.52;;;14.20;84.50;;;;;;5021469;28;20052;-73
2023/05/07 01:51:11;;;;;;;15.02;13.52;;;14.20;84.40;;;;;;5034968;28;20045;-73
2023/05/07 01:53:38;;;;;;;17.95;14.43;;;14.10;84.30;;;;;;5036104;28;20045;-74
2023/05/07 01:56:05;;;;;;;17.38;14.32;;;14.10;84.40;;;;;;5027413;28;20038;-73
2023/05/07 01:58:31;;;;;;;16.95;14.30;;;14.00;84.30;;;;;;5025651;28;20041;-74
2023/05/07 02:00:56;;;;;;;21.30;15.68;;;14.10;84.40;;;;;;5018087;28;20049;-73
2023/05/07 02:03:22;;;;;;;20.00;15.73;;;14.00;84.30;;;;;;5017540;28;20124;-73
2023/05/07 02:05:47;;;;;;;18.05;15.18;;;14.00;84.40;;;;;;5016151;28;20487;-73
2023/05/07 02:08:13;;;;;;;18.63;15.82;;;14.00;84.40;;;;;;5027890;28;20087;-73
2023/05/07 02:10:39;;;;;;;16.75;14.77;;;14.00;84.50;;;;;;5002853;28;20064;-74
2023/05/07 02:13:05;;;;;;;18.70;15.43;;;14.00;84.60;;;;;;5026043;28;20120;-74
2023/05/07 02:15:30;;;;;;;18.00;15.30;;;14.00;84.60;;;;;;5011951;28;20439;-73
2023/05/07 02:18:08;;;;;;;16.38;14.60;;;14.00;84.70;;;;;;5017245;28;20037;-74
2023/05/07 02:20:35;;;;;;;19.35;15.80;;;13.90;84.70;;;;;;5033994;28;20503;-73
2023/05/07 02:23:00;;;;;;;21.45;17.30;;;13.90;84.60;;;;;;5035672;28;20067;-74
2023/05/07 02:25:26;;;;;;;21.90;18.05;;;13.90;84.60;;;;;;5029523;28;20045;-73
2023/05/07 02:27:52;;;;;;;21.55;18.65;;;13.80;84.40;;;;;;5034783;28;20056;-73
2023/05/07 02:30:18;;;;;;;22.13;19.63;;;13.80;84.10;;;;;;5035367;28;20045;-74
2023/05/07 02:32:43;;;;;;;20.50;18.15;;;13.80;83.90;;;;;;5047411;28;20041;-73
2023/05/07 02:35:09;;;;;;;22.02;19.20;;;13.70;83.70;;;;;;5017941;28;20037;-73
2023/05/07 02:37:35;;;;;;;23.58;19.92;;;13.70;83.60;;;;;;5031441;28;20030;-74
2023/05/07 02:40:00;;;;;;;22.42;19.98;;;13.60;83.50;;;;;;5033256;28;20557;-74
2023/05/07 02:42:26;;;;;;;24.73;19.13;;;13.60;83.50;;;;;;5015577;28;20048;-73
2023/05/07 02:44:52;;;;;;;25.00;21.15;;;13.50;83.50;;;;;;5032412;28;20120;-74
2023/05/07 02:47:18;;;;;;;25.92;20.20;;;13.50;83.60;;;;;;5017406;28;20049;-73
2023/05/07 02:49:43;;;;;;;22.63;19.70;;;13.40;83.70;;;;;;5015389;28;20088;-73
2023/05/07 02:52:09;;;;;;;24.67;20.83;;;13.40;83.90;;;;;;5016385;28;20557;-73
2023/05/07 02:54:35;;;;;;;23.88;20.55;;;13.40;84.40;;;;;;5029089;28;20040;-74
2023/05/07 02:57:01;;;;;;;23.50;20.48;;;13.40;84.20;;;;;;5035371;28;20049;-74
2023/05/07 02:59:27;;;;;;;26.67;20.73;;;13.30;83.90;;;;;;5035131;28;20052;-73
2023/05/07 03:01:53;;;;;;;23.60;20.52;;;13.30;83.80;;;;;;5024731;28;20045;-74
2023/05/07 03:04:18;;;;;;;25.60;20.58;;;13.20;83.60;;;;;;4999511;28;20077;-74
2023/05/07 03:06:44;;;;;;;26.20;21.17;;;13.20;83.70;;;;;;5016489;28;20446;-73
2023/05/07 03:09:10;;;;;;;28.80;20.85;;;13.10;83.60;;;;;;5015194;28;20045;-74
2023/05/07 03:11:36;;;;;;;23.30;20.50;;;13.10;83.80;;;;;;5021732;28;20056;-72
2023/05/07 03:14:02;;;;;;;27.60;21.45;;;13.10;84.00;;;;;;5035233;28;20498;-73
2023/05/07 03:16:28;;;;;;;25.20;21.65;;;13.00;84.00;;;;;;5022054;28;20037;-74
2023/05/07 03:18:53;;;;;;;22.92;20.35;;;13.10;84.10;;;;;;5027375;28;20127;-73
2023/05/07 03:21:19;;;;;;;26.65;21.67;;;13.00;84.10;;;;;;5019983;28;20093;-73
2023/05/07 03:23:45;;;;;;;25.38;22.60;;;13.00;84.00;;;;;;5034882;28;20097;-73
2023/05/07 03:26:11;;;;;;;26.70;22.08;;;13.00;84.00;;;;;;5034993;28;20049;-74
2023/05/07 03:28:37;;;;;;;25.90;22.60;;;12.90;84.00;;;;;;5034694;28;20048;-73
2023/05/07 03:31:02;;;;;;;24.38;21.77;;;12.90;84.00;;;;;;5015856;28;20041;-73
2023/05/07 03:33:28;;;;;;;26.70;22.60;;;12.90;83.90;;;;;;5014929;28;20038;-73
2023/05/07 03:35:54;;;;;;;27.33;23.17;;;12.90;83.90;;;;;;5015942;28;20124;-73
2023/05/07 03:38:20;;;;;;;27.17;23.50;;;12.90;83.90;;;;;;5026204;28;20041;-73
2023/05/07 03:40:45;;;;;;;25.63;22.55;;;12.90;84.00;;;;;;5034966;28;20052;-74
2023/05/07 03:43:11;;;;;;;31.08;24.65;;;12.90;84.00;;;;;;5034704;28;20546;-72
2023/05/07 03:45:37;;;;;;;33.58;24.13;;;12.80;83.90;;;;;;5034883;28;20083;-74
2023/05/07 03:48:03;;;;;;;26.83;22.85;;;12.80;83.80;;;;;;5024103;28;20043;-73
2023/05/07 03:50:28;;;;;;;28.90;23.30;;;12.80;83.90;;;;;;5015142;28;20456;-74
2023/05/07 03:52:54;;;;;;;30.02;24.35;;;12.80;83.90;;;;;;5014733;28;20045;-74
2023/05/07 03:55:20;;;;;;;31.10;24.60;;;12.70;83.90;;;;;;5020550;28;20056;-74
2023/05/07 03:57:46;;;;;;;32.03;26.50;;;12.70;83.90;;;;;;5034580;28;20041;-74
2023/05/07 04:00:12;;;;;;;32.10;25.85;;;12.70;84.00;;;;;;5029518;28;20101;-73
2023/05/07 04:02:38;;;;;;;34.80;26.52;;;12.70;84.40;;;;;;5034121;28;20519;-73
2023/05/07 04:05:04;;;;;;;31.48;25.58;;;12.60;84.00;;;;;;5034059;28;20049;-74
2023/05/07 04:07:30;;;;;;;31.17;25.83;;;12.60;84.10;;;;;;5002297;28;20524;-73
2023/05/07 04:09:56;;;;;;;35.28;27.55;;;12.50;84.10;;;;;;5019461;28;20124;-73
2023/05/07 04:12:21;;;;;;;36.90;27.00;;;12.50;84.10;;;;;;5052030;28;20412;-74
2023/05/07 04:14:47;;;;;;;30.42;26.33;;;12.50;84.10;;;;;;5004782;28;20046;-74
2023/05/07 04:17:13;;;;;;;36.90;28.35;;;12.40;84.10;;;;;;5035962;28;20080;-74
2023/05/07 04:19:38;;;;;;;32.35;27.02;;;12.40;84.10;;;;;;5018173;28;20045;-74
2023/05/07 04:22:04;;;;;;;37.72;28.70;;;12.40;84.20;;;;;;5027171;28;20175;-73
2023/05/07 04:24:33;;;;;;;34.88;28.02;;;12.40;84.20;;;;;;5035805;28;20507;-74
2023/05/07 04:26:59;;;;;;;33.75;27.83;;;12.40;84.20;;;;;;5018076;28;20049;-73
2023/05/07 04:29:25;;;;;;;36.13;28.98;;;12.40;84.20;;;;;;5035626;28;20124;-73
2023/05/07 04:31:50;;;;;;;40.72;30.25;;;12.40;84.30;;;;;;5051537;28;20508;-73
2023/05/07 04:34:16;;;;;;;38.90;29.38;;;12.30;84.60;;;;;;5006150;28;20052;-73
2023/05/07 04:36:42;;;;;;;33.83;28.48;;;12.30;84.30;;;;;;5037525;28;20040;-73
2023/05/07 04:39:08;;;;;;;39.05;28.90;;;12.30;84.40;;;;;;5021040;28;20388;-73
2023/05/07 04:41:36;;;;;;;35.22;28.27;;;12.30;84.50;;;;;;5024784;28;20049;-74
2023/05/07 04:44:04;;;;;;;37.60;29.60;;;12.30;84.50;;;;;;5001618;28;20808;-73
2023/05/07 04:46:30;;;;;;;35.38;28.95;;;12.30;84.50;;;;;;5034264;28;20439;-73
2023/05/07 04:48:56;;;;;;;38.22;29.63;;;12.30;84.60;;;;;;5018941;28;20041;-73
2023/05/07 04:51:21;;;;;;;39.08;30.88;;;12.30;84.50;;;;;;5055233;28;20098;-73
2023/05/07 04:53:48;;;;;;;40.33;32.60;;;12.30;84.50;;;;;;5037240;28;20047;-73
2023/05/07 04:56:14;;;;;;;39.85;31.35;;;12.30;84.60;;;;;;5035296;28;20041;-74
2023/05/07 04:58:40;;;;;;;37.80;31.08;;;12.30;84.60;;;;;;5036728;28;20456;-74
2023/05/07 05:01:06;;;;;;;40.83;31.00;;;12.30;84.60;;;;;;5019352;28;20048;-73
2023/05/07 05:03:31;;;;;;;42.03;31.00;;;12.30;84.60;;;;;;5015548;28;20036;-73
2023/05/07 05:05:59;;;;;;;43.42;32.25;;;12.30;84.60;;;;;;5020695;28;20495;-73
2023/05/07 05:08:25;;;;;;;37.47;30.80;;;12.30;84.50;;;;;;5040927;28;20050;-73
2023/05/07 05:10:51;;;;;;;37.17;29.73;;;12.20;84.40;;;;;;5027103;28;20408;-73
2023/05/07 05:13:17;;;;;;;39.83;30.35;;;12.20;84.40;;;;;;5036015;28;20056;-74
2023/05/07 05:15:43;;;;;;;38.00;30.05;;;12.20;84.30;;;;;;5016595;28;20045;-74
2023/05/07 05:18:08;;;;;;;39.67;31.15;;;12.20;84.20;;;;;;5032344;28;20094;-74
2023/05/07 05:20:34;;;;;;;37.83;30.15;;;12.20;84.20;;;;;;5037191;28;20049;-74
2023/05/07 05:23:00;;;;;;;41.05;29.73;;;12.20;84.30;;;;;;5048649;28;20032;-74
2023/05/07 05:25:25;;;;;;;39.67;31.63;;;12.20;84.50;;;;;;5034603;28;20045;-74
2023/05/07 05:27:51;;;;;;;38.97;29.45;;;12.20;84.40;;;;;;5034875;28;20108;-74
2023/05/07 05:30:17;;;;;;;39.55;31.45;;;12.20;84.30;;;;;;5036401;28;20102;-74
2023/05/07 05:32:42;;;;;;;41.00;31.23;;;12.20;84.40;;;;;;5035709;28;20094;-73
2023/05/07 05:35:08;;;;;;;38.40;30.10;;;12.30;84.60;;;;;;5043950;28;20481;-74
2023/05/07 05:37:34;;;;;;;37.15;29.70;;;12.30;84.60;;;;;;5019702;28;20044;-73
2023/05/07 05:40:00;;;;;;;37.28;29.50;;;12.30;84.40;;;;;;5036586;28;20036;-73
2023/05/07 05:42:25;;;;;;;38.42;30.83;;;12.30;84.50;;;;;;5019228;28;20401;-73
2023/05/07 05:44:51;;;;;;;35.28;29.27;;;12.30;84.60;;;;;;5033477;28;20135;-73
2023/05/07 05:47:17;;;;;;;34.13;28.95;;;12.40;84.60;;;;;;5035757;28;20052;-74
2023/05/07 05:49:43;;;;;;;33.97;27.67;;;12.30;84.40;;;;;;5035427;28;20449;-74
2023/05/07 05:52:09;;;;;;;35.90;29.73;;;12.30;84.30;;;;;;5035327;28;20503;-73
2023/05/07 05:54:35;;;;;;;34.42;28.40;;;12.40;84.30;;;;;;5021152;28;20045;-73
2023/05/07 05:57:03;;;;;;;35.25;27.52;;;12.40;84.30;;;;;;5004926;28;20040;-73
2023/05/07 05:59:29;;;;;;;35.05;28.45;;;12.40;84.10;;;;;;5036080;28;20491;-74
2023/05/07 06:01:55;;;;;;;34.65;27.73;;;12.30;84.10;;;;;;5026180;28;20047;-74
2023/05/07 06:04:21;;;;;;;32.97;28.48;;;12.30;84.10;;;;;;5016389;28;20124;-74
2023/05/07 06:06:46;;;;;;;34.20;26.85;;;12.30;84.10;;;;;;5011807;28;20041;-73
2023/05/07 06:09:12;;;;;;;33.65;27.38;;;12.30;84.00;;;;;;5035624;28;20045;-73
2023/05/07 06:11:38;;;;;;;33.03;26.45;;;12.30;84.00;;;;;;5030662;28;20053;-74
2023/05/07 06:14:03;;;;;;;35.28;27.48;;;12.30;84.00;;;;;;5031722;28;20477;-74
2023/05/07 06:16:29;;;;;;;32.83;27.17;;;12.30;84.00;;;;;;5033663;28;20428;-74
2023/05/07 06:18:55;;;;;;;33.55;26.92;;;12.30;84.00;;;;;;5017286;28;20045;-74
2023/05/07 06:21:21;;;;;;;32.85;28.00;;;12.30;84.10;;;;;;5034598;28;20049;-73
2023/05/07 06:23:46;;;;;;;34.65;27.48;;;12.30;84.50;;;;;;5018612;28;20053;-73
2023/05/07 06:26:12;;;;;;;32.88;26.30;;;12.30;84.30;;;;;;5022824;28;20044;-73
2023/05/07 06:28:38;;;;;;;30.90;25.35;;;12.30;84.40;;;;;;5019345;28;20127;-73
2023/05/07 06:31:20;;;;;;;34.33;26.33;;;12.40;84.40;;;;;;5016628;28;20456;-73
2023/05/07 06:33:46;;;;;;;30.70;26.95;;;12.40;84.40;;;;;;5033044;28;20123;-73
2023/05/07 06:36:13;;;;;;;34.35;27.17;;;12.40;84.50;;;;;;5034844;28;20361;-73
2023/05/07 06:38:38;;;;;;;31.77;26.88;;;12.50;84.70;;;;;;5019680;28;20103;-74
2023/05/07 06:41:06;;;;;;;29.13;25.10;;;12.50;84.70;;;;;;5029405;28;20142;-74
2023/05/07 06:43:31;;;;;;;32.42;26.27;;;12.50;84.60;;;;;;5033720;28;20044;-74
2023/05/07 06:45:57;;;;;;;29.42;24.90;;;12.60;84.40;;;;;;5034649;28;20051;-74
2023/05/07 06:48:23;;;;;;;33.65;26.63;;;12.60;84.10;;;;;;5020444;28;20077;-73
2023/05/07 06:50:49;;;;;;;31.23;25.38;;;12.70;84.20;;;;;;5015351;28;20041;-73
2023/05/07 06:53:14;;;;;;;32.10;25.13;;;12.70;84.20;;;;;;4999548;28;20033;-74
2023/05/07 06:55:41;;;;;;;31.27;26.00;;;12.70;84.10;;;;;;5027216;28;20103;-74
2023/05/07 06:58:07;;;;;;;30.70;25.02;;;12.80;84.00;;;;;;5015533;28;20037;-74
2023/05/07 07:00:32;;;;;;;32.20;26.55;;;12.80;83.80;;;;;;5024991;28;20123;-74
2023/05/07 07:02:59;;;;;;;33.42;26.05;;;12.90;83.80;;;;;;5016963;28;20033;-74
2023/05/07 07:05:25;;;;;;;31.02;26.17;;;12.90;83.60;;;;;;5015391;28;20083;-74
2023/05/07 07:07:52;;;;;;;28.02;24.35;;;13.00;83.50;;;;;;5023301;28;20085;-74
2023/05/07 07:10:22;;;;;;;30.08;24.48;;;13.00;83.50;;;;;;5041096;28;20045;-75
2023/05/07 07:12:48;;;;;;;28.73;24.08;;;13.10;83.30;;;;;;5024492;28;20475;-74
2023/05/07 07:15:14;;;;;;;30.42;24.52;;;13.20;82.80;;;;;;5029493;28;20045;-74
2023/05/07 07:17:40;;;;;;;30.27;23.80;;;13.20;82.40;;;;;;5022385;28;20151;-74
2023/05/07 07:20:07;;;;;;;28.98;25.50;;;13.20;82.30;;;;;;5034674;28;20077;-74
2023/05/07 07:22:32;;;;;;;29.02;24.50;;;13.40;82.40;;;;;;5032985;28;20041;-74
2023/05/07 07:24:58;;;;;;;30.13;25.83;;;13.40;82.40;;;;;;5047492;28;20048;-74
2023/05/07 07:27:24;;;;;;;27.60;24.65;;;13.60;82.60;;;;;;5038685;28;20066;-74
2023/05/07 07:29:50;;;;;;;27.33;24.02;;;13.70;82.30;;;;;;5003376;28;20037;-73
2023/05/07 07:32:15;;;;;;;28.70;25.20;;;13.70;81.80;;;;;;5026777;28;20117;-74
2023/05/07 07:34:41;;;;;;;28.70;24.65;;;13.80;81.70;;;;;;5017445;28;20123;-73
2023/05/07 07:37:07;;;;;;;29.35;24.65;;;13.90;81.80;;;;;;5034603;28;20041;-73
2023/05/07 07:39:33;;;;;;;31.35;25.48;;;13.90;81.10;;;;;;5020136;28;20167;-73
2023/05/07 07:41:59;;;;;;;27.95;24.05;;;14.00;80.50;;;;;;5028037;28;20535;-74
2023/05/07 07:44:25;;;;;;;28.23;25.00;;;14.00;80.20;;;;;;5038205;28;20037;-74
2023/05/07 07:46:51;;;;;;;29.17;25.70;;;14.00;80.10;;;;;;5054513;28;20047;-73
2023/05/07 07:49:16;;;;;;;29.67;25.60;;;14.00;80.00;;;;;;5032937;28;20392;-73
2023/05/07 07:51:42;;;;;;;29.38;24.98;;;14.00;80.00;;;;;;5023395;28;20456;-73
2023/05/07 07:54:08;;;;;;;30.45;25.42;;;14.10;80.10;;;;;;5023477;28;20037;-73
2023/05/07 07:56:34;;;;;;;29.38;23.58;;;14.20;79.90;;;;;;5037507;28;20112;-74
2023/05/07 07:59:01;;;;;;;31.42;25.65;;;14.20;79.90;;;;;;5020645;28;20071;-73
2023/05/07 08:01:28;;;;;;;29.05;24.52;;;14.20;79.80;;;;;;5039443;28;20104;-74
2023/05/07 08:03:54;;;;;;;29.10;24.83;;;14.30;79.80;;;;;;5047933;28;20044;-74
2023/05/07 08:06:19;;;;;;;28.60;25.50;;;14.40;80.20;;;;;;5037893;28;20452;-73
2023/05/07 08:08:45;;;;;;;28.23;25.23;;;14.50;79.80;;;;;;5006294;28;20044;-73
2023/05/07 08:11:11;;;;;;;28.17;25.13;;;14.60;79.60;;;;;;5027141;28;20140;-73
2023/05/07 08:13:37;;;;;;;28.10;24.55;;;14.70;79.70;;;;;;5007360;28;20048;-74
2023/05/07 08:16:04;;;;;;;30.58;24.98;;;14.80;79.10;;;;;;5019128;28;20049;-73
2023/05/07 08:18:30;;;;;;;32.55;25.55;;;14.80;78.50;;;;;;5037407;28;20059;-73
2023/05/07 08:20:55;;;;;;;28.77;24.40;;;14.90;78.30;;;;;;5037850;28;20344;-73
2023/05/07 08:23:22;;;;;;;27.52;23.95;;;15.00;78.40;;;;;;5037716;28;20041;-73
2023/05/07 08:25:49;;;;;;;32.10;25.60;;;15.00;77.90;;;;;;5029567;28;20049;-74
2023/05/07 08:28:15;;;;;;;30.27;25.73;;;15.00;77.40;;;;;;5001585;28;20140;-74
2023/05/07 08:30:41;;;;;;;29.02;25.92;;;15.10;77.70;;;;;;5019112;28;20124;-73
2023/05/07 08:33:09;;;;;;;29.80;24.92;;;15.10;77.60;;;;;;5017801;28;20041;-74
2023/05/07 08:35:35;;;;;;;30.17;24.90;;;15.20;77.40;;;;;;5028942;28;20120;-74
2023/05/07 08:38:01;;;;;;;27.52;24.05;;;15.20;76.90;;;;;;5039949;28;20116;-73
2023/05/07 08:40:27;;;;;;;28.17;25.02;;;15.20;76.60;;;;;;5030915;28;20405;-74
2023/05/07 08:42:53;;;;;;;27.92;24.25;;;15.30;76.50;;;;;;4995733;28;20077;-75
2023/05/07 08:45:23;;;;;;;29.60;26.48;;;15.40;76.60;;;;;;5012177;28;20041;-74
2023/05/07 08:47:58;;;;;;;28.48;25.08;;;15.40;76.00;;;;;;5025160;28;20045;-74
2023/05/07 08:50:24;;;;;;;29.67;25.25;;;15.40;75.50;;;;;;5000623;28;20045;-74
2023/05/07 08:52:50;;;;;;;29.92;26.00;;;15.40;76.20;;;;;;5016995;28;20053;-74
2023/05/07 08:55:16;;;;;;;29.25;25.88;;;15.50;76.60;;;;;;5019619;28;20038;-74
2023/05/07 08:57:41;;;;;;;29.88;26.38;;;15.50;76.50;;;;;;5001146;28;20076;-74
2023/05/07 09:00:08;;;;;;;30.58;25.67;;;15.60;76.10;;;;;;5031350;28;20084;-74
2023/05/07 09:02:36;;;;;;;30.27;26.60;;;15.70;76.70;;;;;;5035163;28;20496;-74
2023/05/07 09:05:02;;;;;;;30.42;25.75;;;15.80;76.60;;;;;;5026448;28;20156;-75
2023/05/07 09:07:28;;;;;;;27.27;24.35;;;15.90;76.10;;;;;;5036291;28;20045;-74
2023/05/07 09:09:55;;;;;;;27.98;24.90;;;16.00;75.80;;;;;;5033078;28;20040;-74
2023/05/07 09:12:21;;;;;;;29.77;25.00;;;16.00;74.80;;;;;;5024000;28;20062;-75
2023/05/07 09:14:47;;;;;;;30.98;26.23;;;16.00;74.50;;;;;;5023327;28;20040;-75
2023/05/07 09:17:13;;;;;;;29.98;25.85;;;16.10;74.50;;;;;;5026734;28;20443;-75
2023/05/07 09:19:39;;;;;;;27.48;24.48;;;16.10;74.50;;;;;;5023209;28;20874;-74
2023/05/07 09:22:07;;;;;;;30.63;24.58;;;16.10;74.50;;;;;;5010666;28;20056;-75
2023/05/07 09:24:37;;;;;;;27.42;24.50;;;16.20;74.60;;;;;;5029166;28;20053;-74
2023/05/07 09:27:04;;;;;;;28.58;25.50;;;16.30;73.90;;;;;;5024366;28;20392;-75
2023/05/07 09:29:34;;;;;;;28.13;25.13;;;16.30;73.80;;;;;;5024220;28;20144;-75
2023/05/07 09:32:07;;;;;;;29.27;25.52;;;16.30;74.40;;;;;;5018652;28;20059;-75
2023/05/07 09:34:34;;;;;;;28.75;25.08;;;16.40;74.80;;;;;;5027461;28;20480;-74
2023/05/07 09:37:04;;;;;;;28.60;25.10;;;16.50;74.10;;;;;;5041345;28;20088;-77
2023/05/07 09:39:40;;;;;;;30.10;26.02;;;16.60;73.30;;;;;;5021954;28;20057;-78
2023/05/07 09:42:06;;;;;;;27.67;24.83;;;16.60;72.90;;;;;;5040227;28;20045;-78
2023/05/07 09:44:33;;;;;;;28.38;24.38;;;16.60;72.80;;;;;;5022981;28;20037;-77
2023/05/07 09:47:00;;;;;;;29.88;25.70;;;16.60;72.90;;;;;;5019210;28;20080;-77
2023/05/07 09:49:32;;;;;;;28.67;25.65;;;16.60;72.70;;;;;;5024297;28;20090;-77
2023/05/07 09:52:00;;;;;;;30.30;27.10;;;16.60;72.50;;;;;;5021029;28;20041;-78
2023/05/07 09:54:28;;;;;;;30.35;26.13;;;16.60;72.90;;;;;;5035901;28;20037;-78
2023/05/07 09:56:55;;;;;;;28.58;24.75;;;16.60;73.30;;;;;;5028162;28;20045;-77
2023/05/07 09:59:22;;;;;;;29.52;25.73;;;16.70;74.00;;;;;;5043782;28;20052;-78
2023/05/07 10:01:49;;;;;;;28.23;25.23;;;16.70;73.80;;;;;;5025273;28;20136;-74
2023/05/07 10:04:16;;;;;;;30.15;25.85;;;16.80;73.20;;;;;;5021535;28;20507;-74
2023/05/07 10:06:44;;;;;;;27.85;24.58;;;16.80;72.50;;;;;;5027570;28;20052;-73
2023/05/07 10:09:11;;;;;;;30.50;27.30;;;16.80;72.70;;;;;;5021437;28;20053;-73
2023/05/07 10:11:37;;;;;;;27.63;24.05;;;16.80;73.40;;;;;;5023764;28;20053;-74
2023/05/07 10:14:05;;;;;;;28.02;25.08;;;16.80;73.20;;;;;;5006201;28;20182;-74
2023/05/07 10:16:36;;;;;;;28.15;25.05;;;17.00;73.70;;;;;;5022458;28;20721;-74
2023/05/07 10:19:06;;;;;;;29.35;25.42;;;17.00;73.30;;;;;;5021008;28;20045;-73
2023/05/07 10:21:56;;;;;;;29.98;26.35;;;17.10;72.90;;;;;;5022527;28;20083;-73
2023/05/07 10:24:28;;;;;;;29.63;25.00;;;17.20;73.40;;;;;;5003872;28;20118;-73
2023/05/07 10:26:56;;;;;;;26.92;24.02;;;17.30;72.70;;;;;;5017914;28;20119;-74
2023/05/07 10:30:00;;;;;;;27.48;24.58;;;17.30;72.90;;;;;;5002439;28;20048;-74
2023/05/07 10:32:53;;;;;;;28.52;25.40;;;17.50;72.10;;;;;;5028127;28;20071;-74
2023/05/07 10:35:29;;;;;;;29.13;25.23;;;17.60;71.70;;;;;;5014577;28;20045;-75
2023/05/07 10:37:55;;;;;;;31.65;26.88;;;17.70;71.10;;;;;;5021931;28;20035;-74
2023/05/07 10:40:21;;;;;;;27.90;24.23;;;17.70;71.50;;;;;;5021626;28;20380;-74
2023/05/07 10:43:01;;;;;;;29.30;25.38;;;17.70;71.00;;;;;;5028787;28;20047;-74
2023/05/07 10:45:27;;;;;;;28.48;25.42;;;17.80;71.50;;;;;;5027635;28;20048;-78
2023/05/07 10:48:06;;;;;;;27.35;24.35;;;17.80;71.20;;;;;;5006689;28;20049;-78
2023/05/07 10:50:31;;;;;;;27.08;24.17;;;17.90;70.60;;;;;;5023445;28;20045;-78
2023/05/07 10:53:21;;;;;;;28.17;25.25;;;17.90;70.50;;;;;;5019638;28;20040;-78
2023/05/07 10:56:08;;;;;;;27.10;24.33;;;17.90;70.10;;;;;;5028232;28;20037;-78
2023/05/07 10:58:36;;;;;;;28.45;25.27;;;18.00;71.10;;;;;;5019312;28;20042;-78
2023/05/07 11:01:02;;;;;;;27.38;24.58;;;18.00;71.40;;;;;;5016343;28;20045;-73
2023/05/07 11:03:29;;;;;;;27.50;24.38;;;18.10;70.80;;;;;;5011635;28;20044;-73
2023/05/07 11:06:15;;;;;;;27.58;24.67;;;18.10;70.40;;;;;;5020072;28;20033;-73
2023/05/07 11:08:54;;;;;;;25.00;22.38;;;18.30;70.90;;;;;;5019434;28;20032;-73
2023/05/07 11:11:20;;;;;;;27.38;24.58;;;18.40;70.60;;;;;;5017058;28;20057;-73
2023/05/07 11:13:47;;;;;;;25.65;23.00;;;18.00;69.90;;;;;;5006000;28;20044;-74
2023/05/07 11:16:27;;;;;;;26.75;24.05;;;18.50;69.50;;;;;;5015311;28;20629;-74
2023/05/07 11:18:56;;;;;;;25.77;23.10;;;18.60;69.30;;;;;;4998200;28;20478;-73
2023/05/07 11:21:35;;;;;;;24.33;21.77;;;18.60;69.90;;;;;;5020934;28;20210;-73
2023/05/07 11:24:02;;;;;;;23.05;20.63;;;18.70;68.80;;;;;;5032457;28;20052;-73
2023/05/07 11:26:31;;;;;;;24.80;22.17;;;18.80;67.90;;;;;;5023940;28;20053;-74
2023/05/07 11:28:57;;;;;;;24.98;21.55;;;18.80;68.70;;;;;;5015549;28;20159;-74
2023/05/07 11:31:25;;;;;;;24.77;22.17;;;18.90;69.30;;;;;;5013138;28;20044;-74
2023/05/07 11:33:53;;;;;;;25.23;22.52;;;19.10;69.30;;;;;;5017825;28;20522;-73
2023/05/07 11:36:20;;;;;;;24.30;21.58;;;19.20;68.40;;;;;;5000875;28;20037;-73
2023/05/07 11:38:46;;;;;;;22.65;20.35;;;19.40;69.40;;;;;;5018580;28;20080;-73
2023/05/07 11:41:12;;;;;;;21.48;19.23;;;19.50;68.30;;;;;;5016574;28;20061;-73
2023/05/07 11:43:39;;;;;;;21.88;19.67;;;19.70;67.20;;;;;;5017711;28;20090;-72
2023/05/07 11:46:09;;;;;;;19.88;17.77;;;19.80;66.00;;;;;;5016813;28;20049;-73
2023/05/07 11:48:36;;;;;;;19.25;17.25;;;20.00;64.80;;;;;;5016424;28;20049;-72
2023/05/07 11:51:03;;;;;;;19.75;17.80;;;20.00;65.10;;;;;;5030971;28;20087;-73
2023/05/07 11:53:40;;;;;;;18.90;16.90;;;20.10;65.00;;;;;;5013176;28;20080;-73
2023/05/07 11:56:08;;;;;;;19.50;17.63;;;20.20;63.00;;;;;;5012650;28;20041;-73
2023/05/07 11:58:34;;;;;;;20.40;18.30;;;20.40;64.10;;;;;;5015350;28;20121;-74
2023/05/07 12:01:00;;;;;;;22.98;19.75;;;20.40;64.10;;;;;;4998989;28;20380;-73
2023/05/07 12:03:25;;;;;;;21.73;18.02;;;20.50;63.80;;;;;;5015154;28;20120;-73
2023/05/07 12:05:51;;;;;;;19.50;17.50;;;20.40;62.50;;;;;;5015516;28;21795;-73
2023/05/07 12:08:18;;;;;;;20.90;17.48;;;20.40;62.30;;;;;;5014332;28;21671;-73
2023/05/07 12:10:47;;;;;;;19.52;17.42;;;20.40;62.50;;;;;;5013561;28;20156;-73
2023/05/07 12:13:20;;;;;;;19.83;17.73;;;20.40;62.70;;;;;;5014493;28;20068;-73
2023/05/07 12:15:46;;;;;;;20.30;18.33;;;20.30;63.20;;;;;;4998051;28;20106;-73
2023/05/07 12:18:13;;;;;;;21.13;19.02;;;20.30;63.70;;;;;;4999194;28;20045;-73
2023/05/07 12:20:39;;;;;;;20.08;18.08;;;20.40;64.40;;;;;;5013887;28;20059;-74
2023/05/07 12:23:05;;;;;;;21.05;18.90;;;20.50;64.40;;;;;;5015307;28;20044;-73
2023/05/07 12:25:34;;;;;;;19.48;17.48;;;20.50;62.50;;;;;;4998316;28;20053;-74
2023/05/07 12:28:01;;;;;;;19.58;17.58;;;20.50;62.40;;;;;;5020775;28;20055;-72